Time;durP1;ratioP1;P1;durP2;ratioP2;P2;SDS_P1;SDS_P2;PMS_P1;PMS_P2;Temp;Humidity;BMP_temperature;BMP_pressure;BME280_temperature;BME280_humidity;BME280_pressure;Samples;Min_cycle;Max_cycle;Signal;HPM_P1;HPM_P2
2021/07/19 00:02:07;;;;;;;1.63;1.52;;;22.60;99.90;;;;;;5061123;28;20063;-76
2021/07/19 00:04:43;;;;;;;2.92;1.83;;;22.60;99.90;;;;;;5073691;28;20024;-76
2021/07/19 00:07:09;;;;;;;2.97;2.03;;;22.50;99.90;;;;;;5055896;28;20024;-76
2021/07/19 00:09:35;;;;;;;2.67;2.15;;;22.50;99.90;;;;;;5073712;28;20037;-76
2021/07/19 00:12:02;;;;;;;1.73;1.63;;;22.50;99.90;;;;;;5082984;28;20035;-76
2021/07/19 00:14:28;;;;;;;2.20;2.00;;;22.40;99.90;;;;;;5058400;28;20365;-76
2021/07/19 00:16:55;;;;;;;4.35;2.22;;;22.40;99.90;;;;;;5082792;28;20016;-76
2021/07/19 00:19:21;;;;;;;2.50;2.30;;;22.40;99.90;;;;;;5093756;28;20055;-77
2021/07/19 00:21:47;;;;;;;2.13;2.03;;;22.40;99.90;;;;;;5093758;28;20024;-76
2021/07/19 00:24:13;;;;;;;2.85;2.53;;;22.40;99.90;;;;;;5075382;28;20028;-76
2021/07/19 00:26:39;;;;;;;2.30;2.20;;;22.40;99.90;;;;;;5093620;28;20060;-76
2021/07/19 00:29:04;;;;;;;2.95;2.30;;;22.50;99.90;;;;;;5071413;28;20105;-76
2021/07/19 00:31:32;;;;;;;2.38;2.17;;;22.50;99.90;;;;;;5055242;28;20477;-76
2021/07/19 00:34:00;;;;;;;2.63;2.08;;;22.40;99.90;;;;;;5073140;28;20107;-76
2021/07/19 00:36:25;;;;;;;2.35;2.15;;;22.30;99.90;;;;;;5055305;28;20058;-76
2021/07/19 00:38:52;;;;;;;2.50;2.30;;;22.40;99.90;;;;;;5073152;28;20035;-76
2021/07/19 00:41:19;;;;;;;2.03;1.92;;;22.40;99.90;;;;;;5054993;28;20106;-76
2021/07/19 00:43:45;;;;;;;1.88;1.77;;;22.40;99.90;;;;;;5072940;28;20024;-76
2021/07/19 00:46:10;;;;;;;2.70;2.30;;;22.40;99.90;;;;;;5076283;28;20379;-76
2021/07/19 00:48:36;;;;;;;2.72;2.03;;;22.40;99.90;;;;;;5093352;28;20029;-76
2021/07/19 00:51:04;;;;;;;1.67;1.58;;;22.30;99.90;;;;;;5093406;28;20020;-76
2021/07/19 00:53:30;;;;;;;2.22;2.13;;;22.30;99.90;;;;;;5093110;28;20047;-76
2021/07/19 00:55:57;;;;;;;3.03;2.08;;;22.30;99.90;;;;;;5093430;28;20052;-76
2021/07/19 00:58:28;;;;;;;2.22;2.03;;;22.30;99.90;;;;;;5093188;28;20028;-76
2021/07/19 01:00:55;;;;;;;2.17;2.03;;;22.40;99.90;;;;;;5093001;28;20028;-76
2021/07/19 01:03:24;;;;;;;3.17;2.35;;;22.30;99.90;;;;;;5074921;28;20031;-76
2021/07/19 01:05:50;;;;;;;2.00;1.90;;;22.30;99.90;;;;;;5074691;28;20038;-76
2021/07/19 01:08:18;;;;;;;2.55;2.20;;;22.40;99.90;;;;;;5092776;28;20096;-76
2021/07/19 01:10:45;;;;;;;3.30;2.40;;;22.30;99.90;;;;;;5087660;28;20039;-76
2021/07/19 01:13:11;;;;;;;1.85;1.75;;;22.30;99.90;;;;;;5072829;28;20032;-76
2021/07/19 01:15:39;;;;;;;2.38;1.90;;;22.30;99.90;;;;;;5081698;28;20040;-76
2021/07/19 01:18:07;;;;;;;2.67;2.13;;;22.20;99.90;;;;;;5055774;28;20773;-76
2021/07/19 01:20:37;;;;;;;2.42;2.22;;;22.20;99.90;;;;;;5075698;28;20028;-76
2021/07/19 01:23:24;;;;;;;3.63;2.40;;;22.20;99.90;;;;;;5091205;28;20034;-76
2021/07/19 01:26:19;;;;;;;2.33;2.17;;;22.20;99.90;;;;;;5074526;28;20489;-76
2021/07/19 01:28:48;;;;;;;2.25;2.00;;;22.20;99.90;;;;;;5085719;28;20028;-76
2021/07/19 01:31:27;;;;;;;2.13;1.80;;;22.20;99.90;;;;;;5073764;28;20111;-76
2021/07/19 01:34:16;;;;;;;4.15;2.30;;;22.20;99.90;;;;;;5072512;28;20021;-76
2021/07/19 01:36:47;;;;;;;2.92;2.20;;;22.10;99.90;;;;;;5072361;28;20056;-76
2021/07/19 01:39:14;;;;;;;2.30;2.20;;;22.10;99.90;;;;;;5054596;28;20056;-76
2021/07/19 01:41:40;;;;;;;2.20;1.85;;;22.10;99.90;;;;;;5084196;28;20044;-76
2021/07/19 01:44:08;;;;;;;2.28;2.17;;;22.10;99.90;;;;;;5072312;28;20028;-76
2021/07/19 01:46:34;;;;;;;2.38;2.17;;;22.20;99.90;;;;;;5082701;28;20157;-76
2021/07/19 01:49:01;;;;;;;2.63;2.42;;;22.20;99.90;;;;;;5096760;28;20082;-76
2021/07/19 01:51:27;;;;;;;2.70;2.20;;;22.20;99.90;;;;;;5096611;28;20024;-76
2021/07/19 01:53:56;;;;;;;2.92;2.60;;;22.20;99.90;;;;;;5096586;28;20031;-76
2021/07/19 01:56:23;;;;;;;2.65;2.40;;;22.20;99.90;;;;;;5096542;28;20035;-76
2021/07/19 01:58:49;;;;;;;4.63;2.83;;;22.10;99.90;;;;;;5088773;28;20021;-76
2021/07/19 02:01:16;;;;;;;2.60;2.40;;;22.20;99.90;;;;;;5076329;28;20021;-76
2021/07/19 02:03:42;;;;;;;5.20;2.63;;;22.10;99.90;;;;;;5075863;28;20021;-76
2021/07/19 02:06:08;;;;;;;2.72;2.50;;;22.10;99.90;;;;;;5075958;28;20486;-76
2021/07/19 02:08:36;;;;;;;2.45;2.25;;;22.20;99.90;;;;;;5075890;28;20020;-76
2021/07/19 02:11:03;;;;;;;5.40;2.78;;;22.20;99.90;;;;;;5057971;28;20035;-76
2021/07/19 02:13:32;;;;;;;2.38;2.17;;;22.20;99.90;;;;;;5057718;28;20365;-76
2021/07/19 02:15:59;;;;;;;3.15;2.65;;;22.30;99.90;;;;;;5077204;28;20108;-76
2021/07/19 02:18:26;;;;;;;2.70;2.08;;;22.30;99.90;;;;;;5096277;28;20028;-76
2021/07/19 02:20:56;;;;;;;3.47;2.75;;;22.30;99.90;;;;;;5096205;28;20028;-76
2021/07/19 02:23:24;;;;;;;2.72;2.53;;;22.30;99.90;;;;;;5096039;28;20024;-76
2021/07/19 02:25:52;;;;;;;3.10;2.80;;;22.30;99.90;;;;;;5095743;28;20020;-76
2021/07/19 02:28:18;;;;;;;3.10;2.90;;;22.40;99.90;;;;;;5077859;28;20073;-76
2021/07/19 02:30:45;;;;;;;3.08;2.88;;;22.40;99.90;;;;;;5095960;28;20060;-76
2021/07/19 02:33:12;;;;;;;3.30;2.95;;;22.40;99.90;;;;;;5077848;28;20074;-76
2021/07/19 02:35:41;;;;;;;3.13;2.92;;;22.30;99.90;;;;;;5095679;28;20099;-76
2021/07/19 02:38:09;;;;;;;3.15;2.95;;;22.20;99.90;;;;;;5075872;28;20028;-76
2021/07/19 02:40:38;;;;;;;3.42;3.13;;;22.10;99.90;;;;;;5095230;28;20063;-76
2021/07/19 02:43:06;;;;;;;3.50;3.20;;;22.10;99.90;;;;;;5077424;28;20396;-76
2021/07/19 02:45:37;;;;;;;3.55;3.13;;;22.00;99.90;;;;;;5095396;28;20543;-76
2021/07/19 02:48:05;;;;;;;5.45;3.40;;;22.10;99.90;;;;;;5058604;28;20024;-76
2021/07/19 02:50:31;;;;;;;4.18;2.88;;;22.20;99.90;;;;;;5083881;28;20496;-76
2021/07/19 02:52:59;;;;;;;3.38;3.10;;;22.20;99.90;;;;;;5095750;28;20038;-76
2021/07/19 02:55:28;;;;;;;4.10;3.05;;;22.20;99.90;;;;;;5091287;28;20031;-76
2021/07/19 02:57:54;;;;;;;3.88;3.20;;;22.10;99.90;;;;;;5094544;28;20035;-76
2021/07/19 03:00:20;;;;;;;3.17;2.85;;;22.10;99.90;;;;;;5088284;28;20554;-76
2021/07/19 03:03:12;;;;;;;3.72;3.17;;;22.10;99.90;;;;;;5075301;28;20349;-76
2021/07/19 03:05:41;;;;;;;3.17;2.88;;;22.10;99.90;;;;;;5057310;28;20042;-76
2021/07/19 03:08:09;;;;;;;3.42;3.10;;;22.20;99.90;;;;;;5057252;28;20021;-76
2021/07/19 03:10:37;;;;;;;3.08;2.88;;;22.20;99.90;;;;;;5083599;28;20070;-76
2021/07/19 03:13:15;;;;;;;2.97;2.78;;;22.20;99.90;;;;;;5095228;28;20479;-76
2021/07/19 03:15:44;;;;;;;4.68;3.45;;;22.10;99.90;;;;;;5094837;28;20024;-76
2021/07/19 03:18:10;;;;;;;4.90;3.65;;;22.10;99.90;;;;;;5057279;28;20035;-76
2021/07/19 03:20:40;;;;;;;3.03;2.60;;;22.00;99.90;;;;;;5083412;28;20078;-76
2021/07/19 03:23:11;;;;;;;3.03;2.83;;;21.90;99.90;;;;;;5095357;28;20039;-76
2021/07/19 03:25:37;;;;;;;4.05;3.08;;;22.00;99.90;;;;;;5093653;28;20028;-76
2021/07/19 03:28:04;;;;;;;5.28;3.40;;;22.00;99.90;;;;;;5074938;28;20024;-76
2021/07/19 03:30:30;;;;;;;4.47;3.10;;;22.10;99.90;;;;;;5075938;28;20391;-76
2021/07/19 03:32:58;;;;;;;3.28;2.97;;;22.10;99.90;;;;;;5056581;28;20028;-76
2021/07/19 03:35:26;;;;;;;3.20;2.90;;;22.20;99.90;;;;;;5056902;28;20025;-76
2021/07/19 03:37:53;;;;;;;3.50;3.20;;;22.00;99.90;;;;;;5074666;28;20033;-76
2021/07/19 03:40:20;;;;;;;4.30;3.67;;;22.10;99.90;;;;;;5079236;28;20089;-76
2021/07/19 03:42:48;;;;;;;4.13;3.08;;;22.00;99.90;;;;;;5094654;28;20070;-76
2021/07/19 03:45:15;;;;;;;4.88;3.20;;;21.90;99.90;;;;;;5076177;28;20032;-76
2021/07/19 03:47:43;;;;;;;3.40;3.10;;;21.90;99.90;;;;;;5094576;28;20027;-76
2021/07/19 03:50:10;;;;;;;3.40;3.15;;;21.90;99.90;;;;;;5090289;28;20098;-76
2021/07/19 03:52:40;;;;;;;6.57;3.58;;;21.90;99.90;;;;;;5074046;28;20484;-76
2021/07/19 03:55:08;;;;;;;8.68;3.30;;;21.90;99.90;;;;;;5073927;28;20031;-76
2021/07/19 03:57:35;;;;;;;4.07;3.47;;;21.90;99.90;;;;;;5090823;28;20035;-76
2021/07/19 04:00:08;;;;;;;3.63;3.33;;;21.80;99.90;;;;;;5073167;28;20040;-76
2021/07/19 04:02:35;;;;;;;6.03;3.80;;;22.00;99.90;;;;;;5056034;28;20392;-76
2021/07/19 04:05:04;;;;;;;6.90;3.63;;;21.90;99.90;;;;;;5055916;28;20028;-76
2021/07/19 04:07:30;;;;;;;3.38;3.08;;;21.90;99.90;;;;;;5074618;28;20020;-76
2021/07/19 04:09:57;;;;;;;4.45;2.95;;;21.90;99.90;;;;;;5056796;28;20027;-76
2021/07/19 04:12:25;;;;;;;3.50;3.20;;;21.80;99.90;;;;;;5084808;28;20023;-76
2021/07/19 04:14:52;;;;;;;4.57;3.50;;;21.90;99.90;;;;;;5073844;28;20035;-76
2021/07/19 04:17:17;;;;;;;3.33;3.13;;;21.80;99.90;;;;;;5086195;28;20121;-76
2021/07/19 04:19:45;;;;;;;3.58;3.28;;;21.90;99.90;;;;;;5093912;28;20032;-76
2021/07/19 04:22:13;;;;;;;6.85;3.08;;;21.90;99.90;;;;;;5093779;28;20030;-76
2021/07/19 04:24:39;;;;;;;2.97;2.78;;;21.90;99.90;;;;;;5093705;28;20035;-76
2021/07/19 04:27:05;;;;;;;4.63;3.30;;;22.00;99.90;;;;;;5093322;28;20024;-76
2021/07/19 04:29:31;;;;;;;4.35;3.20;;;22.00;99.90;;;;;;5093739;28;20100;-76
2021/07/19 04:31:58;;;;;;;3.40;3.10;;;22.00;99.90;;;;;;5075534;28;20020;-76
2021/07/19 04:34:32;;;;;;;5.35;3.30;;;22.00;99.90;;;;;;5093446;28;20028;-76
2021/07/19 04:37:03;;;;;;;4.03;3.72;;;22.00;99.90;;;;;;5093421;28;20027;-76
2021/07/19 04:39:29;;;;;;;4.00;3.70;;;21.90;99.90;;;;;;5093424;28;20032;-76
2021/07/19 04:41:55;;;;;;;3.30;3.00;;;22.00;99.90;;;;;;5093670;28;20361;-76
2021/07/19 04:44:21;;;;;;;3.47;3.17;;;21.90;99.90;;;;;;5075019;28;20037;-76
2021/07/19 04:46:48;;;;;;;4.00;3.10;;;22.00;99.90;;;;;;5093114;28;20021;-76
2021/07/19 04:49:15;;;;;;;3.33;3.03;;;22.00;99.90;;;;;;5093345;28;20019;-76
2021/07/19 04:51:40;;;;;;;3.35;3.05;;;22.00;99.90;;;;;;5093170;28;20016;-76
2021/07/19 04:54:08;;;;;;;3.88;3.50;;;22.00;99.90;;;;;;5093076;28;20055;-76
2021/07/19 04:56:36;;;;;;;3.22;3.00;;;22.00;99.90;;;;;;5090742;28;20058;-76
2021/07/19 04:59:03;;;;;;;3.78;3.50;;;22.00;99.90;;;;;;5083031;28;20107;-76
2021/07/19 05:01:30;;;;;;;5.15;3.20;;;22.10;99.90;;;;;;5093264;28;20024;-76
2021/07/19 05:03:58;;;;;;;5.15;3.08;;;22.20;99.90;;;;;;5092359;28;20084;-76
2021/07/19 05:06:27;;;;;;;5.15;3.38;;;22.20;99.90;;;;;;5072539;28;20391;-76
2021/07/19 05:08:54;;;;;;;4.97;3.17;;;22.20;99.90;;;;;;5054756;28;20020;-76
2021/07/19 05:11:25;;;;;;;3.70;3.22;;;22.20;99.90;;;;;;5088095;28;20085;-76
2021/07/19 05:13:51;;;;;;;3.10;2.73;;;22.20;99.90;;;;;;5083079;28;20112;-76
2021/07/19 05:16:17;;;;;;;4.22;3.42;;;22.20;99.90;;;;;;5072299;28;20095;-76
2021/07/19 05:18:45;;;;;;;4.38;3.03;;;22.30;99.90;;;;;;5072025;28;20108;-76
2021/07/19 05:21:11;;;;;;;4.00;3.63;;;22.30;99.90;;;;;;5071969;28;20047;-76
2021/07/19 05:23:38;;;;;;;7.22;3.50;;;22.40;99.90;;;;;;5071954;28;20024;-76
2021/07/19 05:26:04;;;;;;;5.22;3.58;;;22.40;99.90;;;;;;5053952;28;20368;-76
2021/07/19 05:28:30;;;;;;;6.32;3.92;;;22.40;99.90;;;;;;5085318;28;20055;-76
2021/07/19 05:30:56;;;;;;;4.35;3.47;;;22.50;99.90;;;;;;5080789;28;20056;-76
2021/07/19 05:33:24;;;;;;;5.50;3.67;;;22.50;99.90;;;;;;5076406;28;20048;-76
2021/07/19 05:35:51;;;;;;;5.15;3.83;;;22.50;99.90;;;;;;5092619;28;20035;-76
2021/07/19 05:38:17;;;;;;;4.47;3.58;;;22.60;99.90;;;;;;5092894;28;20024;-76
2021/07/19 05:40:44;;;;;;;3.60;3.22;;;22.60;99.90;;;;;;5092681;28;20048;-76
2021/07/19 05:43:10;;;;;;;9.65;3.60;;;22.70;99.90;;;;;;5090443;28;20483;-76
2021/07/19 05:45:37;;;;;;;5.97;3.03;;;22.60;99.90;;;;;;5072230;28;20029;-75
2021/07/19 05:48:03;;;;;;;4.78;3.35;;;22.70;99.90;;;;;;5091304;28;20474;-76
2021/07/19 05:50:30;;;;;;;3.60;3.22;;;22.70;99.90;;;;;;5074701;28;20077;-76
2021/07/19 05:52:57;;;;;;;3.13;2.90;;;22.80;99.90;;;;;;5092453;28;20073;-76
2021/07/19 05:55:26;;;;;;;3.70;3.47;;;22.80;99.90;;;;;;5092442;28;20032;-76
2021/07/19 05:57:52;;;;;;;3.85;3.55;;;22.90;99.90;;;;;;5092126;28;20024;-76
2021/07/19 06:00:19;;;;;;;5.43;3.47;;;22.90;99.90;;;;;;5092285;28;20028;-76
2021/07/19 06:02:45;;;;;;;4.45;4.05;;;23.00;99.90;;;;;;5092408;28;20123;-76
2021/07/19 06:05:12;;;;;;;8.85;3.42;;;23.00;99.90;;;;;;5072955;28;20079;-76
2021/07/19 06:07:38;;;;;;;3.47;3.10;;;23.00;99.90;;;;;;5054477;28;20123;-76
2021/07/19 06:10:09;;;;;;;3.28;2.88;;;23.10;99.90;;;;;;5072230;28;20100;-76
2021/07/19 06:12:36;;;;;;;3.60;3.35;;;23.10;99.90;;;;;;5072048;28;20021;-76
2021/07/19 06:15:06;;;;;;;4.03;3.45;;;23.20;99.90;;;;;;5089336;28;20113;-76
2021/07/19 06:17:38;;;;;;;4.28;3.88;;;23.30;99.90;;;;;;5091928;28;20024;-76
2021/07/19 06:20:29;;;;;;;5.78;2.92;;;23.30;99.90;;;;;;5092273;28;20028;-76
2021/07/19 06:23:02;;;;;;;4.47;3.30;;;23.40;97.30;;;;;;5091807;28;20035;-76
2021/07/19 06:25:33;;;;;;;5.32;3.97;;;23.50;96.80;;;;;;5071997;28;20059;-76
2021/07/19 06:28:01;;;;;;;6.80;3.45;;;23.60;94.30;;;;;;5079772;28;20087;-76
2021/07/19 06:30:27;;;;;;;4.75;4.05;;;23.70;96.90;;;;;;5092234;28;20113;-75
2021/07/19 06:32:54;;;;;;;5.13;3.28;;;23.80;99.90;;;;;;5081749;28;20028;-75
2021/07/19 06:35:20;;;;;;;5.28;3.47;;;23.80;99.90;;;;;;5082755;28;20024;-76
2021/07/19 06:37:45;;;;;;;4.60;3.40;;;23.80;99.90;;;;;;5077473;28;20035;-75
2021/07/19 06:40:12;;;;;;;6.53;3.78;;;23.80;99.90;;;;;;5095673;28;20056;-76
2021/07/19 06:42:38;;;;;;;5.95;3.72;;;24.00;99.90;;;;;;5095560;28;20024;-75
2021/07/19 06:45:09;;;;;;;4.53;4.13;;;24.00;99.90;;;;;;5095548;28;20035;-76
2021/07/19 06:47:35;;;;;;;5.80;3.60;;;24.00;99.90;;;;;;5095598;28;20024;-76
2021/07/19 06:50:02;;;;;;;5.32;3.78;;;24.20;99.90;;;;;;5095493;28;20040;-76
2021/07/19 06:52:27;;;;;;;4.70;3.70;;;24.20;99.90;;;;;;5084270;28;20426;-76
2021/07/19 06:54:53;;;;;;;5.93;3.40;;;24.20;99.90;;;;;;5075022;28;20029;-76
2021/07/19 06:57:20;;;;;;;5.28;3.42;;;24.20;99.80;;;;;;5086376;28;20028;-76
2021/07/19 06:59:45;;;;;;;4.05;3.63;;;24.30;99.90;;;;;;5066623;28;20035;-76
2021/07/19 07:02:11;;;;;;;3.78;3.38;;;24.40;99.90;;;;;;5073280;28;20023;-76
2021/07/19 07:04:37;;;;;;;6.43;3.95;;;24.50;94.60;;;;;;5090170;28;20070;-76
2021/07/19 07:07:03;;;;;;;4.53;3.88;;;24.50;97.40;;;;;;5090356;28;20024;-76
2021/07/19 07:09:31;;;;;;;4.95;3.35;;;24.60;98.20;;;;;;5090966;28;20035;-76
2021/07/19 07:11:57;;;;;;;5.75;3.92;;;24.70;98.60;;;;;;5091110;28;20047;-76
2021/07/19 07:14:22;;;;;;;5.18;3.55;;;24.80;98.10;;;;;;5090526;28;20032;-75
2021/07/19 07:16:48;;;;;;;12.32;4.32;;;24.80;94.70;;;;;;5092207;28;20510;-76
2021/07/19 07:19:14;;;;;;;13.90;4.00;;;24.80;94.50;;;;;;5089434;28;20044;-75
2021/07/19 07:21:39;;;;;;;11.48;4.07;;;24.90;86.50;;;;;;5070348;28;20375;-75
2021/07/19 07:24:05;;;;;;;5.47;3.42;;;25.00;78.70;;;;;;5080410;28;20029;-76
2021/07/19 07:26:31;;;;;;;6.22;3.63;;;25.10;75.80;;;;;;5080858;28;20025;-76
2021/07/19 07:28:57;;;;;;;8.25;4.18;;;25.30;70.40;;;;;;5082316;28;20032;-77
2021/07/19 07:31:28;;;;;;;6.47;3.53;;;25.30;72.90;;;;;;5082265;28;20028;-76
2021/07/19 07:33:56;;;;;;;8.38;3.20;;;25.30;72.80;;;;;;5058565;28;20031;-76
2021/07/19 07:36:34;;;;;;;8.30;3.78;;;25.30;74.80;;;;;;5089471;28;20078;-76
2021/07/19 07:39:00;;;;;;;5.88;3.50;;;25.30;74.90;;;;;;5077388;28;20044;-76
2021/07/19 07:41:27;;;;;;;4.93;3.30;;;25.30;76.20;;;;;;5081393;28;20052;-76
2021/07/19 07:43:53;;;;;;;6.57;3.95;;;25.30;76.40;;;;;;5057081;28;20753;-76
2021/07/19 07:46:19;;;;;;;7.38;3.42;;;25.40;73.50;;;;;;5073792;28;20025;-76
2021/07/19 07:48:45;;;;;;;6.55;2.88;;;25.50;70.50;;;;;;5080940;28;20036;-76
2021/07/19 07:51:11;;;;;;;13.88;4.28;;;25.60;72.60;;;;;;5074942;28;20020;-75
2021/07/19 07:53:38;;;;;;;6.20;3.90;;;25.70;73.70;;;;;;5090873;28;20030;-76
2021/07/19 07:56:04;;;;;;;5.13;3.65;;;25.60;76.30;;;;;;5088571;28;20111;-76
2021/07/19 07:58:29;;;;;;;6.20;2.92;;;25.60;77.10;;;;;;5089567;28;20039;-75
2021/07/19 08:00:56;;;;;;;4.05;3.33;;;25.70;80.10;;;;;;5088555;28;20403;-75
2021/07/19 08:03:22;;;;;;;5.60;3.08;;;25.70;81.10;;;;;;5080426;28;20051;-75
2021/07/19 08:05:48;;;;;;;6.72;3.60;;;25.70;83.50;;;;;;5088141;28;20024;-75
2021/07/19 08:08:15;;;;;;;6.07;3.25;;;25.80;88.00;;;;;;5091664;28;20036;-75
2021/07/19 08:10:41;;;;;;;6.28;3.85;;;25.80;81.80;;;;;;5092634;28;20337;-76
2021/07/19 08:13:07;;;;;;;7.97;4.07;;;25.90;70.80;;;;;;5091973;28;20028;-75
2021/07/19 08:15:35;;;;;;;9.48;4.75;;;26.00;68.10;;;;;;5092044;28;20042;-75
2021/07/19 08:18:01;;;;;;;9.60;3.83;;;26.00;66.50;;;;;;5088255;28;20114;-75
2021/07/19 08:20:26;;;;;;;8.77;3.55;;;26.00;79.70;;;;;;5085892;28;20535;-75
2021/07/19 08:22:52;;;;;;;6.70;3.63;;;26.20;67.90;;;;;;5088262;28;20032;-75
2021/07/19 08:25:18;;;;;;;14.60;4.45;;;26.20;72.00;;;;;;5087586;28;20035;-75
2021/07/19 08:27:45;;;;;;;10.50;4.72;;;26.20;62.20;;;;;;5091557;28;20028;-76
2021/07/19 08:30:12;;;;;;;7.78;3.75;;;26.20;67.40;;;;;;5092001;28;20383;-76
2021/07/19 08:32:39;;;;;;;6.22;3.50;;;26.20;62.20;;;;;;5091501;28;20107;-75
2021/07/19 08:35:09;;;;;;;6.20;3.05;;;26.20;66.30;;;;;;5092089;28;20085;-76
2021/07/19 08:37:46;;;;;;;2.47;2.28;;;26.20;75.40;;;;;;5073937;28;20032;-75
2021/07/19 08:40:14;;;;;;;4.93;3.00;;;26.30;80.30;;;;;;5073964;28;20124;-75
2021/07/19 08:42:40;;;;;;;5.43;3.70;;;26.70;68.20;;;;;;5090800;28;20024;-75
2021/07/19 08:45:09;;;;;;;3.13;2.50;;;26.60;76.00;;;;;;5072188;28;20031;-76
2021/07/19 08:47:37;;;;;;;5.43;2.67;;;26.60;78.00;;;;;;5091120;28;20066;-75
2021/07/19 08:50:05;;;;;;;4.00;2.97;;;26.70;79.60;;;;;;5073393;28;20485;-75
2021/07/19 08:52:31;;;;;;;3.97;2.47;;;26.80;81.40;;;;;;5091768;28;20464;-75
2021/07/19 08:54:58;;;;;;;2.65;2.40;;;26.90;79.90;;;;;;5089934;28;20028;-75
2021/07/19 08:57:24;;;;;;;3.78;3.00;;;27.10;77.60;;;;;;5091937;28;20027;-75
2021/07/19 08:59:51;;;;;;;4.25;2.58;;;27.00;79.20;;;;;;5091836;28;20092;-75
2021/07/19 09:02:17;;;;;;;8.63;2.92;;;27.00;81.10;;;;;;5090600;28;20042;-76
2021/07/19 09:04:43;;;;;;;5.57;3.17;;;27.20;78.90;;;;;;5075196;28;20024;-75
2021/07/19 09:07:11;;;;;;;4.50;2.50;;;27.30;74.10;;;;;;5091771;28;20024;-76
2021/07/19 09:09:37;;;;;;;3.05;2.30;;;27.20;75.70;;;;;;5090680;28;20165;-75
2021/07/19 09:12:05;;;;;;;6.28;3.13;;;27.20;77.60;;;;;;5090693;28;20106;-76
2021/07/19 09:14:33;;;;;;;2.63;2.28;;;27.10;77.30;;;;;;5090693;28;20103;-75
2021/07/19 09:16:59;;;;;;;3.05;2.50;;;27.10;78.00;;;;;;5089992;28;20028;-76
2021/07/19 09:19:27;;;;;;;3.25;2.95;;;27.10;76.80;;;;;;5074105;28;20034;-76
2021/07/19 09:22:02;;;;;;;7.93;3.20;;;27.10;76.10;;;;;;5090724;28;20028;-75
2021/07/19 09:24:36;;;;;;;5.68;3.03;;;27.40;74.10;;;;;;5090856;28;20523;-75
2021/07/19 09:27:03;;;;;;;6.57;3.30;;;27.40;78.20;;;;;;5090784;28;20069;-76
2021/07/19 09:29:36;;;;;;;3.38;3.08;;;27.50;72.00;;;;;;5091423;28;20012;-75
2021/07/19 09:32:02;;;;;;;3.38;2.85;;;27.40;71.80;;;;;;5088951;28;20028;-75
2021/07/19 09:34:32;;;;;;;3.55;3.00;;;27.40;77.80;;;;;;5091736;28;20366;-75
2021/07/19 09:37:02;;;;;;;3.95;3.20;;;27.40;79.30;;;;;;5091836;28;20093;-75
2021/07/19 09:39:54;;;;;;;8.65;3.22;;;27.40;79.20;;;;;;5089634;28;20020;-75
2021/07/19 09:42:26;;;;;;;2.70;2.50;;;27.40;82.30;;;;;;5090500;28;20057;-74
2021/07/19 09:44:53;;;;;;;6.68;3.25;;;27.40;82.30;;;;;;5089427;28;20107;-74
2021/07/19 09:47:19;;;;;;;3.75;3.03;;;27.40;81.90;;;;;;5089782;28;20050;-74
2021/07/19 09:49:46;;;;;;;3.70;2.92;;;27.40;80.50;;;;;;5091022;28;20027;-74
2021/07/19 09:52:13;;;;;;;4.07;2.42;;;27.60;78.00;;;;;;5086260;28;20019;-75
2021/07/19 09:54:44;;;;;;;2.92;2.47;;;27.60;78.80;;;;;;5090881;28;20028;-74
2021/07/19 09:57:14;;;;;;;6.03;2.80;;;27.70;81.40;;;;;;5078216;28;20115;-74
2021/07/19 09:59:53;;;;;;;4.65;2.65;;;27.70;82.00;;;;;;5091673;28;20016;-74
2021/07/19 10:02:37;;;;;;;4.60;2.53;;;27.80;78.80;;;;;;5089914;28;20016;-74
2021/07/19 10:05:06;;;;;;;4.47;2.85;;;27.90;80.60;;;;;;5075026;28;20078;-75
2021/07/19 10:07:32;;;;;;;4.50;2.88;;;27.90;77.10;;;;;;5076414;28;20032;-75
2021/07/19 10:09:59;;;;;;;3.53;2.55;;;27.90;75.40;;;;;;5092661;28;20392;-75
2021/07/19 10:12:26;;;;;;;5.53;2.10;;;27.90;79.70;;;;;;5093588;28;20037;-74
2021/07/19 10:14:52;;;;;;;3.42;2.67;;;28.00;77.50;;;;;;5082908;28;20027;-74
2021/07/19 10:17:19;;;;;;;5.43;2.80;;;27.90;78.10;;;;;;5091699;28;20024;-74
2021/07/19 10:19:45;;;;;;;4.60;2.35;;;28.00;80.60;;;;;;5074179;28;20028;-74
2021/07/19 10:22:12;;;;;;;4.75;2.83;;;28.00;81.10;;;;;;5090858;28;20016;-75
2021/07/19 10:24:45;;;;;;;3.45;2.40;;;28.20;81.30;;;;;;5091023;28;20035;-75
2021/07/19 10:27:23;;;;;;;4.32;2.75;;;28.20;77.60;;;;;;5090947;28;20102;-74
2021/07/19 10:29:50;;;;;;;3.25;2.95;;;28.30;74.60;;;;;;5092142;28;20016;-74
2021/07/19 10:32:22;;;;;;;2.75;2.45;;;28.30;77.80;;;;;;5092689;28;20031;-75
2021/07/19 10:34:49;;;;;;;3.97;2.53;;;28.30;77.60;;;;;;5071290;28;20036;-74
2021/07/19 10:37:27;;;;;;;2.63;2.35;;;28.50;73.40;;;;;;5093546;28;20406;-77
2021/07/19 10:39:57;;;;;;;2.97;2.60;;;28.70;72.40;;;;;;5095516;28;20115;-76
2021/07/19 10:42:34;;;;;;;2.53;2.33;;;28.70;75.80;;;;;;5095940;28;20024;-76
2021/07/19 10:45:11;;;;;;;3.53;2.38;;;28.70;74.80;;;;;;5095265;28;20016;-76
2021/07/19 10:47:53;;;;;;;3.70;2.30;;;28.70;73.60;;;;;;5079753;28;20016;-76
2021/07/19 10:50:22;;;;;;;3.90;2.40;;;28.70;74.60;;;;;;5095578;28;20016;-76
2021/07/19 10:52:49;;;;;;;4.53;2.42;;;28.80;74.30;;;;;;5095590;28;20023;-76
2021/07/19 10:55:33;;;;;;;3.20;2.72;;;28.90;73.80;;;;;;5095311;28;20055;-76
2021/07/19 10:58:06;;;;;;;4.47;2.50;;;29.00;75.50;;;;;;5079121;28;20498;-76
2021/07/19 11:00:38;;;;;;;2.78;2.47;;;29.10;73.90;;;;;;5077212;28;20383;-76
2021/07/19 11:03:12;;;;;;;6.78;2.95;;;29.20;74.90;;;;;;5095349;28;20030;-76
2021/07/19 11:05:40;;;;;;;3.50;2.78;;;29.20;73.60;;;;;;5095242;28;20436;-76
2021/07/19 11:08:18;;;;;;;3.28;2.97;;;29.20;71.90;;;;;;5076622;28;20020;-75
2021/07/19 11:10:47;;;;;;;5.10;2.55;;;29.30;73.70;;;;;;5093398;28;20027;-76
2021/07/19 11:13:35;;;;;;;3.25;2.45;;;29.30;71.90;;;;;;5095107;28;20012;-76
2021/07/19 11:16:12;;;;;;;3.30;2.42;;;29.50;69.40;;;;;;5080945;28;20024;-76
2021/07/19 11:18:38;;;;;;;6.15;3.47;;;29.50;71.80;;;;;;5094030;28;20038;-76
2021/07/19 11:21:04;;;;;;;5.57;2.47;;;29.70;66.90;;;;;;5094803;28;20024;-76
2021/07/19 11:23:38;;;;;;;3.38;2.40;;;29.80;63.20;;;;;;5094805;28;20107;-75
2021/07/19 11:26:17;;;;;;;3.75;2.85;;;29.70;62.20;;;;;;5094608;28;20459;-74
2021/07/19 11:28:43;;;;;;;7.75;2.95;;;29.60;64.10;;;;;;5087832;28;20023;-75
2021/07/19 11:31:17;;;;;;;4.55;3.28;;;29.50;67.70;;;;;;5082437;28;20020;-74
2021/07/19 11:34:07;;;;;;;5.35;3.30;;;29.40;68.10;;;;;;5093636;28;20087;-75
2021/07/19 11:36:47;;;;;;;6.45;4.03;;;29.50;67.50;;;;;;5092564;28;20024;-75
2021/07/19 11:39:18;;;;;;;4.00;2.58;;;29.60;71.60;;;;;;5075615;28;20066;-74
2021/07/19 11:41:44;;;;;;;2.70;2.50;;;29.70;70.10;;;;;;5105620;28;20051;-74
2021/07/19 11:44:16;;;;;;;5.35;2.90;;;30.00;68.80;;;;;;5089887;28;20024;-74
2021/07/19 11:46:42;;;;;;;5.28;2.80;;;30.10;70.70;;;;;;5099815;28;20031;-74
2021/07/19 11:49:13;;;;;;;3.38;2.55;;;30.30;69.70;;;;;;5091008;28;20073;-74
2021/07/19 11:51:43;;;;;;;;;;;30.40;69.30;;;;;;5093063;28;20051;-74
2021/07/19 11:54:13;;;;;;;7.57;2.78;;;30.50;70.10;;;;;;5088779;28;19915;-74
2021/07/19 11:56:51;;;;;;;4.15;2.63;;;30.60;70.00;;;;;;5074831;28;20097;-74
2021/07/19 11:59:21;;;;;;;6.68;2.80;;;30.70;62.50;;;;;;5092802;28;20566;-75
2021/07/19 12:01:58;;;;;;;3.92;2.58;;;30.90;67.30;;;;;;5091346;28;20030;-75
2021/07/19 12:04:42;;;;;;;2.72;2.35;;;31.00;66.30;;;;;;5092442;28;20081;-75
2021/07/19 12:07:10;;;;;;;3.63;2.30;;;31.00;67.10;;;;;;5092590;28;20572;-75
2021/07/19 12:09:36;;;;;;;6.50;3.80;;;31.10;60.00;;;;;;5088231;28;20028;-76
2021/07/19 12:12:03;;;;;;;7.38;3.35;;;31.10;61.30;;;;;;5087189;28;20054;-75
2021/07/19 12:14:30;;;;;;;8.30;3.00;;;31.20;59.90;;;;;;5089738;28;20076;-76
2021/07/19 12:16:57;;;;;;;3.28;2.80;;;31.20;59.40;;;;;;5070056;28;20050;-76
2021/07/19 12:19:23;;;;;;;5.95;3.00;;;31.30;60.90;;;;;;5090238;28;20502;-75
2021/07/19 12:21:53;;;;;;;4.97;2.90;;;31.50;63.00;;;;;;5088599;28;20666;-75
2021/07/19 12:24:24;;;;;;;4.40;2.25;;;31.60;64.30;;;;;;5090063;28;20016;-75
2021/07/19 12:26:55;;;;;;;5.57;2.92;;;31.60;65.10;;;;;;5087975;28;20024;-75
2021/07/19 12:29:36;;;;;;;4.93;2.70;;;31.70;61.90;;;;;;5089629;28;20051;-75
2021/07/19 12:32:07;;;;;;;3.05;2.63;;;31.70;64.10;;;;;;5088374;28;20020;-75
2021/07/19 12:34:40;;;;;;;4.82;2.92;;;31.70;63.60;;;;;;5068668;28;20025;-75
2021/07/19 12:37:08;;;;;;;7.32;2.95;;;31.80;60.90;;;;;;5068677;28;20086;-75
2021/07/19 12:39:42;;;;;;;6.68;3.75;;;32.00;59.30;;;;;;5054630;28;20364;-75
2021/07/19 12:42:11;;;;;;;7.40;3.45;;;32.10;61.30;;;;;;5088950;28;20027;-75
2021/07/19 12:44:38;;;;;;;7.53;2.83;;;32.20;60.90;;;;;;5088317;28;20054;-75
2021/07/19 12:47:05;;;;;;;6.13;2.70;;;32.20;62.20;;;;;;5089115;28;20024;-75
2021/07/19 12:49:35;;;;;;;3.63;2.75;;;32.30;63.40;;;;;;5088808;28;20101;-75
2021/07/19 12:52:29;;;;;;;4.38;2.35;;;32.30;60.80;;;;;;5088418;28;20028;-75
2021/07/19 12:55:08;;;;;;;3.38;2.50;;;32.30;61.90;;;;;;5081892;28;20027;-75
2021/07/19 12:57:36;;;;;;;2.97;2.35;;;32.40;60.40;;;;;;5084330;28;20024;-75